Natchitoches, LA (71497)

3:33 AM CST on December 03, 2016 (GMT -0600)
Sisson Road | | Change Station

Elev 207 ft 31.78 °N, 93.18 °W | Updated 2 minutes ago

Rain
Rain
47.4 °F
Feels Like 47 °F
N
1.0
Wind Variable Wind from ENE
Gusts 5.0 mph

Today
High -- | Low -- °F
--% Chance of Precip.
Yesterday
High -- | Low -- °F
Precip. -- in
Pressure 30.16 in
Visibility 7.0 miles
Clouds Scattered Clouds 900 ft
Scattered Clouds 1900 ft
Overcast 5000 ft
Windchill 47 °F
Dew Point 46 °F
Humidity 95%
Rainfall 0.47 in
Snow Depth Not available.
6:56 AM 5:08 PM
Waxing Crescent, 13% visible
METAR KIER 030915Z AUTO 08008KT 7SM RA SCT009 SCT019 OVC050 08/08 A3016 RMK AO2 P0002 T00770077
Pressure 30.16 in
Visibility 7.0 miles
Clouds Scattered Clouds 900 ft
Scattered Clouds 1900 ft
Overcast 5000 ft
Windchill 47 °F
Dew Point 46 °F
Humidity 95%
Rainfall 0.47 in
Snow Depth Not available.
6:56 AM 5:08 PM
Waxing Crescent, 13% visible
METAR KIER 030915Z AUTO 08008KT 7SM RA SCT009 SCT019 OVC050 08/08 A3016 RMK AO2 P0002 T00770077

10-Day Weather Forecast

Almanac

Astronomy

Dec. 03, 2016 Rise Set
Actual Time
Civil Twilight
Nautical Twilight
Astronomical Twilight
Moon
Length of Visible Light
Length of Day
Tomorrow will be .
, % of the Moon is Illuminated

Today's Extremes

State Highs State Lows

Community

WunderPhotos

Upload Photos

1,955,434 photos uploaded!

WunderBlog® & News

Nearby

Air Quality

  Air Quality AQ Index Pollutant
Not available.

Snow Depth

Station Depth Elevation

Earthquake Activity

City Distance Mag. Time & Date
Minimum magnitude displayed is 2.5.

Coastal Water Temperatures

Place Temperature

Stations

Nearby Weather Stations

Station Location Temp. Windchill Dew Point Humidity Wind Precip. Elev Updated Type
                   

Watches & Warnings

There are currently no watches in effect.